createdAt,value
2018-12-26T00:01:52.032Z,90.03
2018-12-26T00:04:20.968Z,90.54
2018-12-26T00:12:19.750Z,92.73
2018-12-26T00:14:48.672Z,92.62
2018-12-26T00:17:17.406Z,92.19
2018-12-26T00:19:46.376Z,93.52
2018-12-26T00:22:15.270Z,94.23
2018-12-26T00:24:44.267Z,93.76
2018-12-26T00:27:13.315Z,93.62
2018-12-26T00:32:24.309Z,92.87
2018-12-26T00:35:12.271Z,92.34
2018-12-26T00:40:15.486Z,91.63
2018-12-26T00:42:44.612Z,91.30
2018-12-26T00:45:13.736Z,91.97
2018-12-26T00:47:42.740Z,91.72
2018-12-26T00:50:11.512Z,91.44
2018-12-26T00:52:40.445Z,92.01
2018-12-26T00:55:09.466Z,93.70
2018-12-26T00:57:38.369Z,93.73
2018-12-26T01:00:07.585Z,93.98
2018-12-26T01:02:36.724Z,94.28
2018-12-26T01:05:05.846Z,94.78
2018-12-26T01:07:34.574Z,94.73
2018-12-26T01:10:03.598Z,94.98
2018-12-26T01:12:32.909Z,94.63
2018-12-26T01:17:36.648Z,95.57
2018-12-26T01:20:05.832Z,96.30
2018-12-26T01:25:09.631Z,96.94
2018-12-26T01:27:38.679Z,96.26
2018-12-26T01:30:07.962Z,96.57
2018-12-26T01:32:36.666Z,96.21
2018-12-26T01:35:05.696Z,96.54
2018-12-26T01:37:34.421Z,96.80
2018-12-26T01:40:03.573Z,96.57
2018-12-26T01:42:32.284Z,96.67
2018-12-26T01:45:01.357Z,96.78
2018-12-26T01:47:30.475Z,96.71
2018-12-26T01:52:53.389Z,96.81
2018-12-26T01:57:56.182Z,97.40
2018-12-26T02:00:25.301Z,97.47
2018-12-26T02:02:54.224Z,97.10
2018-12-26T02:05:23.124Z,97.50
2018-12-26T02:13:01.179Z,96.82
2018-12-26T02:18:56.656Z,97.23
2018-12-26T02:21:25.565Z,96.88
2018-12-26T02:23:54.521Z,96.44
2018-12-26T02:28:58.338Z,96.50
2018-12-26T02:34:01.899Z,96.29
2018-12-26T02:39:44.994Z,95.86
2018-12-26T02:44:48.043Z,93.90
2018-12-26T02:47:16.896Z,93.76
2018-12-26T02:49:45.710Z,93.90
2018-12-26T02:52:14.693Z,94.04
2018-12-26T02:54:43.408Z,94.15
2018-12-26T02:59:46.893Z,93.34
2018-12-26T03:04:49.890Z,92.89
2018-12-26T03:07:18.729Z,93.06
2018-12-26T03:09:47.616Z,93.20
2018-12-26T03:12:16.313Z,93.52
2018-12-26T03:17:19.546Z,93.50
2018-12-26T03:19:48.558Z,93.25
2018-12-26T03:24:52.279Z,92.49
2018-12-26T03:29:55.710Z,92.05
2018-12-26T03:32:24.689Z,92.46
2018-12-26T03:34:53.838Z,92.53
2018-12-26T03:37:22.685Z,92.57
2018-12-26T03:39:51.958Z,92.56
2018-12-26T03:42:21.135Z,93.33
2018-12-26T03:45:29.998Z,92.79
2018-12-26T03:48:38.602Z,92.69
2018-12-26T03:53:43.081Z,93.31
2018-12-26T03:56:12.143Z,93.22
2018-12-26T03:58:40.920Z,93.68
2018-12-26T04:01:09.997Z,94.01
2018-12-26T04:03:39.036Z,94.57
2018-12-26T04:06:07.838Z,94.27
2018-12-26T04:08:36.872Z,94.78
2018-12-26T04:11:24.786Z,94.99
2018-12-26T04:13:53.549Z,95.29
2018-12-26T04:16:22.447Z,95.61
2018-12-26T04:18:51.149Z,95.64
2018-12-26T04:21:20.118Z,95.77
2018-12-26T04:23:48.887Z,95.40
2018-12-26T04:26:18.000Z,95.98
2018-12-26T04:36:52.502Z,95.35
2018-12-26T04:39:21.377Z,95.73
2018-12-26T04:41:50.158Z,95.79
2018-12-26T04:44:38.318Z,95.61
2018-12-26T04:47:07.353Z,95.25
2018-12-26T04:49:36.106Z,95.26
2018-12-26T04:54:39.372Z,95.33
2018-12-26T04:57:08.203Z,95.47
2018-12-26T04:59:37.333Z,95.53
2018-12-26T05:02:25.312Z,95.19
2018-12-26T05:05:13.314Z,95.08
2018-12-26T05:10:17.134Z,95.30
2018-12-26T05:12:45.961Z,95.31
2018-12-26T05:15:15.010Z,96.35
2018-12-26T05:17:43.982Z,96.47
2018-12-26T05:20:12.937Z,96.66
2018-12-26T05:22:41.976Z,96.70
2018-12-26T05:25:10.901Z,96.94
2018-12-26T05:27:39.687Z,96.89
2018-12-26T05:30:08.522Z,97.06
2018-12-26T05:32:37.428Z,96.94
2018-12-26T05:35:06.481Z,96.82
2018-12-26T05:40:09.643Z,96.92
2018-12-26T05:45:13.331Z,96.59
2018-12-26T05:47:42.510Z,97.17
2018-12-26T05:50:11.619Z,97.07
2018-12-26T05:52:40.670Z,96.71
2018-12-26T05:57:43.929Z,96.73
2018-12-26T06:02:47.317Z,96.72
2018-12-26T06:05:16.542Z,96.56
2018-12-26T06:10:19.729Z,96.17
2018-12-26T06:12:48.656Z,95.90
2018-12-26T06:15:18.002Z,95.97
2018-12-26T06:17:46.861Z,95.98
2018-12-26T06:20:34.925Z,95.63
2018-12-26T06:23:03.608Z,95.66
2018-12-26T06:25:32.459Z,95.37
2018-12-26T06:28:01.419Z,94.83
2018-12-26T06:30:30.453Z,95.02
2018-12-26T06:35:33.065Z,94.92
2018-12-26T06:38:01.825Z,95.35
2018-12-26T06:43:05.479Z,95.21
2018-12-26T06:48:08.816Z,95.25
2018-12-26T06:50:57.201Z,94.88
2018-12-26T06:53:25.887Z,95.06
2018-12-26T06:55:54.573Z,94.92
2018-12-26T07:00:57.245Z,95.33
2018-12-26T07:03:26.177Z,95.19
2018-12-26T07:05:54.878Z,95.04
2018-12-26T07:08:23.646Z,94.72
2018-12-26T07:10:52.357Z,94.84
2018-12-26T07:13:21.337Z,94.43
2018-12-26T07:15:50.014Z,93.39
2018-12-26T07:18:18.717Z,93.23
2018-12-26T07:20:47.568Z,93.24
2018-12-26T07:23:16.571Z,93.46
2018-12-26T07:25:45.336Z,93.40
2018-12-26T07:28:14.028Z,92.96
2018-12-26T07:30:42.716Z,93.02
2018-12-26T07:35:46.064Z,93.94
2018-12-26T07:40:49.352Z,93.94
2018-12-26T07:43:18.130Z,94.12
2018-12-26T07:45:46.848Z,94.08
2018-12-26T07:48:15.492Z,93.49
2018-12-26T07:50:44.201Z,93.53
2018-12-26T07:53:12.893Z,93.84
2018-12-26T07:55:41.693Z,93.58
2018-12-26T08:00:45.559Z,93.65
2018-12-26T08:03:14.328Z,93.62
2018-12-26T08:05:43.111Z,93.71
2018-12-26T08:08:11.865Z,93.81
2018-12-26T08:13:34.732Z,92.84
2018-12-26T08:16:03.428Z,92.37
2018-12-26T08:18:32.100Z,91.64
2018-12-26T08:21:00.790Z,91.03
2018-12-26T08:23:29.593Z,90.55
2018-12-26T08:25:58.283Z,90.25
2018-12-26T08:28:27.105Z,90.15
2018-12-26T08:30:55.866Z,90.22
2018-12-26T08:33:24.635Z,89.81
2018-12-26T08:35:53.354Z,89.54
2018-12-26T08:41:09.862Z,88.65
2018-12-26T08:43:38.567Z,88.12
2018-12-26T08:46:07.261Z,87.66
2018-12-26T08:48:35.985Z,87.65
2018-12-26T08:51:04.756Z,87.85
2018-12-26T08:53:33.444Z,87.90
2018-12-26T08:56:02.150Z,87.97
2018-12-26T08:58:35.210Z,89.21
2018-12-26T09:01:01.734Z,89.57
2018-12-26T09:09:33.054Z,88.34
2018-12-26T09:12:01.743Z,88.83
2018-12-26T09:14:30.613Z,88.79
2018-12-26T09:16:59.342Z,89.21
2018-12-26T09:19:28.198Z,89.56
2018-12-26T09:24:50.901Z,89.90
2018-12-26T09:30:19.337Z,90.06
2018-12-26T09:32:48.076Z,90.07
2018-12-26T09:35:16.777Z,89.94
2018-12-26T09:40:20.159Z,89.72
2018-12-26T09:43:09.198Z,89.54
2018-12-26T09:45:39.502Z,87.97
2018-12-26T09:48:27.917Z,88.24
2018-12-26T09:53:51.601Z,88.16
2018-12-26T09:58:55.676Z,86.64
2018-12-26T10:04:00.387Z,85.69
2018-12-26T10:06:29.257Z,85.82
2018-12-26T10:09:17.164Z,86.06
2018-12-26T10:11:45.855Z,86.06
2018-12-26T10:14:33.880Z,86.42
2018-12-26T10:17:02.584Z,86.28
2018-12-26T10:19:31.282Z,87.00
2018-12-26T10:21:59.988Z,86.62
2018-12-26T10:24:48.451Z,85.18
2018-12-26T10:29:51.372Z,86.71
2018-12-26T10:32:20.033Z,87.26
2018-12-26T10:37:23.406Z,88.59
2018-12-26T10:39:52.123Z,87.87
2018-12-26T10:42:20.825Z,87.01
2018-12-26T10:44:49.527Z,86.53
2018-12-26T10:47:37.881Z,87.14
2018-12-26T10:50:11.247Z,87.11
2018-12-26T10:55:46.990Z,86.04
2018-12-26T11:00:49.568Z,87.07
2018-12-26T11:03:38.171Z,87.70
2018-12-26T11:06:26.238Z,87.15
2018-12-26T11:09:14.428Z,87.88
2018-12-26T11:11:44.080Z,87.88
2018-12-26T11:14:12.780Z,84.49
2018-12-26T11:16:41.473Z,85.31
2018-12-26T11:19:29.516Z,83.88
2018-12-26T11:24:32.523Z,83.13
2018-12-26T11:29:35.484Z,85.40
2018-12-26T11:32:23.931Z,83.26
2018-12-26T11:38:02.129Z,82.18
2018-12-26T11:40:50.490Z,81.80
2018-12-26T11:43:38.801Z,82.35
2018-12-26T11:46:07.486Z,82.21
2018-12-26T11:48:36.184Z,83.47
2018-12-26T11:53:58.048Z,83.81
2018-12-26T11:56:26.749Z,83.81
2018-12-26T11:58:55.468Z,85.39
2018-12-26T12:01:43.491Z,83.73
2018-12-26T12:04:12.287Z,84.93
2018-12-26T12:12:09.276Z,81.01
2018-12-26T12:17:45.101Z,81.55
2018-12-26T12:20:13.800Z,81.29
2018-12-26T12:23:01.888Z,81.95
2018-12-26T12:25:30.582Z,81.71
2018-12-26T12:27:59.389Z,79.95
2018-12-26T12:33:03.868Z,81.16
2018-12-26T12:35:51.892Z,81.47
2018-12-26T12:38:20.970Z,80.67
2018-12-26T12:43:43.578Z,80.13
2018-12-26T12:46:31.627Z,80.57
2018-12-26T12:49:19.615Z,81.15
2018-12-26T12:51:48.310Z,81.20
2018-12-26T12:54:17.006Z,80.13
2018-12-26T12:56:45.699Z,80.77
2018-12-26T12:59:14.491Z,80.48
2018-12-26T13:02:22.928Z,81.11
2018-12-26T13:04:52.006Z,81.03
2018-12-26T13:07:20.688Z,81.12
2018-12-26T13:10:08.785Z,81.61
2018-12-26T13:12:37.471Z,82.21
2018-12-26T13:15:25.372Z,82.00
2018-12-26T13:17:54.042Z,81.58
2018-12-26T13:20:22.738Z,81.66
2018-12-26T13:23:10.628Z,81.62
2018-12-26T13:25:39.318Z,80.90
2018-12-26T13:31:05.008Z,80.77
2018-12-26T13:33:51.606Z,81.36
2018-12-26T13:36:20.587Z,80.90
2018-12-26T13:38:49.556Z,80.37
2018-12-26T13:43:52.115Z,80.68
2018-12-26T13:46:20.846Z,80.80
2018-12-26T13:48:49.536Z,81.28
2018-12-26T13:51:37.446Z,81.28
2018-12-26T13:54:06.124Z,81.72
2018-12-26T13:56:35.137Z,81.79
2018-12-26T13:59:03.906Z,82.11
2018-12-26T14:01:32.587Z,82.38
2018-12-26T14:06:35.411Z,82.49
2018-12-26T14:09:16.908Z,83.02
2018-12-26T14:11:45.585Z,83.79
2018-12-26T14:14:14.274Z,84.32
2018-12-26T14:16:42.973Z,84.06
2018-12-26T14:19:13.013Z,83.85
2018-12-26T14:21:42.136Z,85.12
2018-12-26T14:24:10.878Z,85.24
2018-12-26T14:26:39.546Z,85.29
2018-12-26T14:29:08.243Z,84.92
2018-12-26T14:31:37.033Z,84.72
2018-12-26T14:36:40.549Z,84.79
2018-12-26T14:39:09.270Z,84.50
2018-12-26T14:41:38.291Z,84.10
2018-12-26T14:44:07.077Z,84.28
2018-12-26T14:49:10.339Z,84.05
2018-12-26T14:51:58.359Z,84.45
2018-12-26T14:54:27.057Z,84.80
2018-12-26T14:57:15.061Z,85.01
2018-12-26T14:59:44.119Z,85.47
2018-12-26T15:02:12.878Z,85.69
2018-12-26T15:07:35.092Z,86.31
2018-12-26T15:10:03.992Z,86.27
2018-12-26T15:12:32.673Z,86.27
2018-12-26T15:15:01.363Z,86.59
2018-12-26T15:20:04.887Z,87.04
2018-12-26T15:22:33.783Z,86.71
2018-12-26T15:25:21.804Z,87.06
2018-12-26T15:27:50.528Z,87.45
2018-12-26T15:36:01.178Z,88.21
2018-12-26T15:38:30.652Z,88.14
2018-12-26T15:40:59.410Z,88.46
2018-12-26T15:43:47.436Z,88.58
2018-12-26T15:46:16.138Z,88.92
2018-12-26T15:48:44.829Z,89.33
2018-12-26T15:51:32.766Z,89.13
2018-12-26T15:54:01.848Z,89.42
2018-12-26T15:56:49.783Z,89.24
2018-12-26T15:59:18.475Z,90.01
2018-12-26T16:02:06.396Z,90.64
2018-12-26T16:04:35.098Z,91.34
2018-12-26T16:07:03.798Z,92.30
2018-12-26T16:09:51.704Z,92.18
2018-12-26T16:12:20.405Z,92.42
2018-12-26T16:17:42.639Z,93.15
2018-12-26T16:20:31.091Z,92.98
2018-12-26T16:22:59.900Z,93.01
2018-12-26T16:25:28.574Z,93.21
2018-12-26T16:28:16.475Z,93.22
2018-12-26T16:31:04.412Z,92.98
2018-12-26T16:36:07.334Z,92.74
2018-12-26T16:38:55.325Z,92.99
2018-12-26T16:41:43.332Z,92.53
2018-12-26T16:46:46.796Z,93.12
2018-12-26T16:52:28.713Z,93.14
2018-12-26T16:54:57.417Z,93.14
2018-12-26T16:57:45.325Z,93.00
2018-12-26T17:02:49.245Z,93.33
2018-12-26T17:05:17.964Z,93.33
2018-12-26T17:07:46.642Z,93.20
2018-12-26T17:10:17.881Z,93.02
2018-12-26T17:13:05.919Z,93.05
2018-12-26T17:15:53.949Z,93.67
2018-12-26T17:18:41.965Z,93.14
2018-12-26T17:24:23.241Z,93.48
2018-12-26T17:27:11.275Z,93.34
2018-12-26T17:29:59.183Z,93.50
2018-12-26T17:35:21.788Z,93.88
2018-12-26T17:37:50.507Z,94.06
2018-12-26T17:40:38.407Z,95.10
2018-12-26T17:43:26.443Z,94.95
2018-12-26T17:46:14.547Z,94.95
2018-12-26T17:51:20.260Z,94.93
2018-12-26T17:57:27.405Z,94.19
2018-12-26T18:02:53.023Z,94.24
2018-12-26T18:05:21.780Z,93.49
2018-12-26T18:07:50.492Z,93.59
2018-12-26T18:10:19.582Z,94.60
2018-12-26T18:12:48.303Z,94.63
2018-12-26T18:15:36.332Z,94.97
2018-12-26T18:18:24.349Z,94.87
2018-12-26T18:21:12.381Z,94.76
2018-12-26T18:23:41.080Z,94.94
2018-12-26T18:26:09.794Z,95.03
2018-12-26T18:28:38.494Z,94.85
2018-12-26T18:31:26.390Z,94.90
2018-12-26T18:33:55.101Z,94.79
2018-12-26T18:36:23.874Z,94.47
2018-12-26T18:38:52.574Z,94.29
2018-12-26T18:41:21.291Z,94.50
2018-12-26T18:43:49.997Z,94.46
2018-12-26T18:48:52.912Z,94.32
2018-12-26T18:51:21.641Z,94.19
2018-12-26T18:53:50.910Z,94.94
2018-12-26T18:56:59.395Z,95.41
2018-12-26T18:59:28.554Z,95.52
2018-12-26T19:01:57.610Z,95.41
2018-12-26T19:04:26.745Z,95.33
2018-12-26T19:07:14.550Z,95.07
2018-12-26T19:09:43.365Z,94.88
2018-12-26T19:12:12.073Z,94.73
2018-12-26T19:15:00.221Z,94.62
2018-12-26T19:17:29.314Z,94.41
2018-12-26T19:19:58.429Z,94.35
2018-12-26T19:22:27.222Z,94.26
2018-12-26T19:28:03.586Z,93.85
2018-12-26T19:30:32.305Z,93.86
2018-12-26T19:33:01.216Z,93.92
2018-12-26T19:35:30.135Z,93.66
2018-12-26T19:41:07.431Z,93.55
2018-12-26T19:43:36.420Z,93.75
2018-12-26T19:48:59.117Z,93.83
2018-12-26T19:54:02.418Z,93.94
2018-12-26T19:56:50.469Z,94.02
2018-12-26T19:59:19.305Z,94.02
2018-12-26T20:01:48.597Z,94.12
2018-12-26T20:04:18.950Z,95.21
2018-12-26T20:07:06.768Z,95.37
2018-12-26T20:09:35.547Z,95.07
2018-12-26T20:12:25.514Z,95.06
2018-12-26T20:14:54.256Z,94.94
2018-12-26T20:17:23.020Z,94.81
2018-12-26T20:20:11.136Z,94.75
2018-12-26T20:22:40.010Z,94.96
2018-12-26T20:25:08.893Z,95.08
2018-12-26T20:27:57.318Z,94.98
2018-12-26T20:30:45.493Z,94.58
2018-12-26T20:33:33.309Z,94.33
2018-12-26T20:36:21.268Z,93.79
2018-12-26T20:45:00.290Z,92.60
2018-12-26T20:47:48.498Z,92.64
2018-12-26T20:50:58.703Z,92.55
2018-12-26T20:54:10.007Z,92.11
2018-12-26T21:02:27.546Z,92.40
2018-12-26T21:05:18.410Z,92.40
2018-12-26T21:08:28.436Z,92.86
2018-12-26T21:11:16.582Z,93.92
2018-12-26T21:13:45.523Z,94.62
2018-12-26T21:16:14.305Z,94.57
2018-12-26T21:18:57.166Z,94.64
2018-12-26T21:22:06.174Z,94.71
2018-12-26T21:25:15.754Z,95.08
2018-12-26T21:28:07.661Z,96.07
2018-12-26T21:33:49.674Z,96.02
2018-12-26T21:36:18.403Z,96.08
2018-12-26T21:38:47.191Z,96.02
2018-12-26T21:41:16.014Z,95.79
2018-12-26T21:46:40.517Z,95.42
2018-12-26T21:52:04.558Z,95.16
2018-12-26T21:54:52.578Z,94.79
2018-12-26T21:57:40.664Z,94.59
2018-12-26T22:00:49.651Z,94.50
2018-12-26T22:09:23.420Z,94.66
2018-12-26T22:12:11.547Z,95.22
2018-12-26T22:14:40.284Z,95.12
2018-12-26T22:17:28.241Z,94.91
2018-12-26T22:20:08.995Z,94.68
2018-12-26T22:25:12.489Z,95.49
2018-12-26T22:27:41.380Z,95.92
2018-12-26T22:30:50.884Z,96.36
2018-12-26T22:36:14.281Z,96.76
2018-12-26T22:41:37.046Z,96.16
2018-12-26T22:44:46.336Z,96.28
2018-12-26T22:47:15.245Z,96.71
2018-12-26T22:53:12.099Z,96.45
2018-12-26T22:58:50.783Z,96.09
2018-12-26T23:01:39.264Z,96.08
2018-12-26T23:07:06.963Z,95.88
2018-12-26T23:09:37.571Z,95.91
2018-12-26T23:17:56.499Z,95.64
2018-12-26T23:23:54.527Z,95.76
2018-12-26T23:27:04.240Z,95.46
2018-12-26T23:29:55.046Z,94.96
2018-12-26T23:32:24.843Z,94.59
2018-12-26T23:35:12.987Z,95.45
2018-12-26T23:38:01.906Z,95.72
2018-12-26T23:40:50.145Z,95.87
2018-12-26T23:46:50.687Z,95.62
2018-12-26T23:49:59.753Z,95.68
2018-12-26T23:52:48.898Z,96.40
2018-12-26T23:58:27.186Z,96.46
